sensor_id;sensor_type;location;lat;lon;timestamp;P1;durP1;ratioP1;P2;durP2;ratioP2
61188;SDS011;47054;39.716;2.904;2022-12-29T00:00:53;10.95;;;5.85;;
61188;SDS011;47054;39.716;2.904;2022-12-29T00:03:38;11.15;;;5.43;;
61188;SDS011;47054;39.716;2.904;2022-12-29T00:06:22;13.05;;;5.85;;
61188;SDS011;47054;39.716;2.904;2022-12-29T00:09:07;12.38;;;5.60;;
61188;SDS011;47054;39.716;2.904;2022-12-29T00:11:52;13.40;;;5.82;;
61188;SDS011;47054;39.716;2.904;2022-12-29T00:14:37;9.93;;;5.22;;
61188;SDS011;47054;39.716;2.904;2022-12-29T00:17:40;11.13;;;5.30;;
61188;SDS011;47054;39.716;2.904;2022-12-29T00:20:24;11.38;;;5.50;;
61188;SDS011;47054;39.716;2.904;2022-12-29T00:23:27;11.07;;;6.10;;
61188;SDS011;47054;39.716;2.904;2022-12-29T00:26:30;9.55;;;4.75;;
61188;SDS011;47054;39.716;2.904;2022-12-29T00:29:33;12.35;;;5.63;;
61188;SDS011;47054;39.716;2.904;2022-12-29T00:32:36;12.88;;;5.43;;
61188;SDS011;47054;39.716;2.904;2022-12-29T00:35:42;13.73;;;5.50;;
61188;SDS011;47054;39.716;2.904;2022-12-29T00:38:31;8.27;;;4.65;;
61188;SDS011;47054;39.716;2.904;2022-12-29T00:41:38;12.00;;;4.82;;
61188;SDS011;47054;39.716;2.904;2022-12-29T00:44:41;11.15;;;5.22;;
61188;SDS011;47054;39.716;2.904;2022-12-29T00:47:27;9.18;;;5.00;;
61188;SDS011;47054;39.716;2.904;2022-12-29T00:50:12;10.05;;;4.93;;
61188;SDS011;47054;39.716;2.904;2022-12-29T00:52:57;11.48;;;4.93;;
61188;SDS011;47054;39.716;2.904;2022-12-29T00:55:41;9.93;;;4.97;;
61188;SDS011;47054;39.716;2.904;2022-12-29T00:58:29;9.45;;;4.78;;
61188;SDS011;47054;39.716;2.904;2022-12-29T01:01:15;11.63;;;4.95;;
61188;SDS011;47054;39.716;2.904;2022-12-29T01:04:00;8.82;;;4.65;;
61188;SDS011;47054;39.716;2.904;2022-12-29T01:06:44;9.73;;;5.28;;
61188;SDS011;47054;39.716;2.904;2022-12-29T01:09:30;9.50;;;4.97;;
61188;SDS011;47054;39.716;2.904;2022-12-29T01:12:33;9.23;;;4.68;;
61188;SDS011;47054;39.716;2.904;2022-12-29T01:15:26;9.48;;;5.18;;
61188;SDS011;47054;39.716;2.904;2022-12-29T01:18:10;8.90;;;4.65;;
61188;SDS011;47054;39.716;2.904;2022-12-29T01:21:02;9.48;;;4.72;;
61188;SDS011;47054;39.716;2.904;2022-12-29T01:23:49;7.60;;;4.25;;
61188;SDS011;47054;39.716;2.904;2022-12-29T01:26:33;9.02;;;4.78;;
61188;SDS011;47054;39.716;2.904;2022-12-29T01:29:18;9.57;;;4.68;;
61188;SDS011;47054;39.716;2.904;2022-12-29T01:32:05;10.02;;;4.38;;
61188;SDS011;47054;39.716;2.904;2022-12-29T01:34:50;9.07;;;4.55;;
61188;SDS011;47054;39.716;2.904;2022-12-29T01:37:36;8.20;;;4.00;;
61188;SDS011;47054;39.716;2.904;2022-12-29T01:40:21;11.32;;;4.60;;
61188;SDS011;47054;39.716;2.904;2022-12-29T01:43:07;8.00;;;4.10;;
61188;SDS011;47054;39.716;2.904;2022-12-29T01:45:54;10.20;;;4.15;;
61188;SDS011;47054;39.716;2.904;2022-12-29T01:48:40;8.57;;;4.13;;
61188;SDS011;47054;39.716;2.904;2022-12-29T01:51:26;7.88;;;4.07;;
61188;SDS011;47054;39.716;2.904;2022-12-29T01:54:16;7.40;;;3.80;;
61188;SDS011;47054;39.716;2.904;2022-12-29T01:57:05;8.52;;;4.07;;
61188;SDS011;47054;39.716;2.904;2022-12-29T02:00:04;7.88;;;4.32;;
61188;SDS011;47054;39.716;2.904;2022-12-29T02:02:57;8.90;;;4.13;;
61188;SDS011;47054;39.716;2.904;2022-12-29T02:05:43;9.43;;;4.30;;
61188;SDS011;47054;39.716;2.904;2022-12-29T02:08:33;8.25;;;4.35;;
61188;SDS011;47054;39.716;2.904;2022-12-29T02:11:19;7.57;;;3.53;;
61188;SDS011;47054;39.716;2.904;2022-12-29T02:14:08;6.97;;;3.90;;
61188;SDS011;47054;39.716;2.904;2022-12-29T02:36:15;7.03;;;3.70;;
61188;SDS011;47054;39.716;2.904;2022-12-29T02:52:08;7.25;;;3.60;;
61188;SDS011;47054;39.716;2.904;2022-12-29T02:54:59;6.57;;;3.55;;
61188;SDS011;47054;39.716;2.904;2022-12-29T02:57:44;6.55;;;3.58;;
61188;SDS011;47054;39.716;2.904;2022-12-29T03:00:30;6.75;;;3.80;;
61188;SDS011;47054;39.716;2.904;2022-12-29T03:03:21;6.72;;;3.70;;
61188;SDS011;47054;39.716;2.904;2022-12-29T03:12:29;6.25;;;3.10;;
61188;SDS011;47054;39.716;2.904;2022-12-29T03:16:01;5.32;;;3.20;;
61188;SDS011;47054;39.716;2.904;2022-12-29T03:19:04;6.10;;;3.40;;
61188;SDS011;47054;39.716;2.904;2022-12-29T03:21:55;6.82;;;3.40;;
61188;SDS011;47054;39.716;2.904;2022-12-29T03:25:08;5.30;;;3.30;;
61188;SDS011;47054;39.716;2.904;2022-12-29T03:28:01;5.15;;;2.95;;
61188;SDS011;47054;39.716;2.904;2022-12-29T03:30:57;4.85;;;2.97;;
61188;SDS011;47054;39.716;2.904;2022-12-29T03:33:43;5.50;;;2.95;;
61188;SDS011;47054;39.716;2.904;2022-12-29T03:36:38;5.85;;;3.05;;
61188;SDS011;47054;39.716;2.904;2022-12-29T03:39:28;6.18;;;3.30;;
61188;SDS011;47054;39.716;2.904;2022-12-29T03:42:15;6.05;;;2.90;;
61188;SDS011;47054;39.716;2.904;2022-12-29T03:45:03;5.50;;;2.92;;
61188;SDS011;47054;39.716;2.904;2022-12-29T03:47:51;5.10;;;2.58;;
61188;SDS011;47054;39.716;2.904;2022-12-29T03:50:37;5.55;;;3.00;;
61188;SDS011;47054;39.716;2.904;2022-12-29T03:53:22;5.72;;;2.90;;
61188;SDS011;47054;39.716;2.904;2022-12-29T03:56:07;5.90;;;3.00;;
61188;SDS011;47054;39.716;2.904;2022-12-29T03:58:52;5.32;;;3.00;;
61188;SDS011;47054;39.716;2.904;2022-12-29T04:01:42;6.55;;;3.17;;
61188;SDS011;47054;39.716;2.904;2022-12-29T04:04:27;5.20;;;3.00;;
61188;SDS011;47054;39.716;2.904;2022-12-29T04:07:12;4.93;;;2.90;;
61188;SDS011;47054;39.716;2.904;2022-12-29T04:10:02;5.53;;;2.70;;
61188;SDS011;47054;39.716;2.904;2022-12-29T04:12:49;5.95;;;3.00;;
61188;SDS011;47054;39.716;2.904;2022-12-29T04:15:34;5.07;;;2.72;;
61188;SDS011;47054;39.716;2.904;2022-12-29T04:18:19;5.60;;;3.00;;
61188;SDS011;47054;39.716;2.904;2022-12-29T04:21:04;5.38;;;2.65;;
61188;SDS011;47054;39.716;2.904;2022-12-29T04:23:52;5.38;;;2.60;;
61188;SDS011;47054;39.716;2.904;2022-12-29T04:26:36;5.95;;;2.60;;
61188;SDS011;47054;39.716;2.904;2022-12-29T04:29:38;4.32;;;2.50;;
61188;SDS011;47054;39.716;2.904;2022-12-29T04:32:35;4.40;;;2.60;;
61188;SDS011;47054;39.716;2.904;2022-12-29T04:35:20;5.05;;;2.90;;
61188;SDS011;47054;39.716;2.904;2022-12-29T04:38:05;6.30;;;2.70;;
61188;SDS011;47054;39.716;2.904;2022-12-29T04:40:50;6.28;;;2.85;;
61188;SDS011;47054;39.716;2.904;2022-12-29T04:43:37;7.22;;;2.50;;
61188;SDS011;47054;39.716;2.904;2022-12-29T04:46:32;4.40;;;2.45;;
61188;SDS011;47054;39.716;2.904;2022-12-29T04:49:20;4.22;;;2.22;;
61188;SDS011;47054;39.716;2.904;2022-12-29T04:52:10;4.32;;;2.40;;
61188;SDS011;47054;39.716;2.904;2022-12-29T04:54:55;4.90;;;2.70;;
61188;SDS011;47054;39.716;2.904;2022-12-29T04:57:40;5.22;;;2.53;;
61188;SDS011;47054;39.716;2.904;2022-12-29T05:00:26;4.50;;;2.60;;
61188;SDS011;47054;39.716;2.904;2022-12-29T05:03:10;4.35;;;2.50;;
61188;SDS011;47054;39.716;2.904;2022-12-29T05:05:57;4.15;;;2.10;;
61188;SDS011;47054;39.716;2.904;2022-12-29T05:08:42;3.47;;;1.95;;
61188;SDS011;47054;39.716;2.904;2022-12-29T05:11:27;4.18;;;2.13;;
61188;SDS011;47054;39.716;2.904;2022-12-29T05:14:13;6.32;;;2.50;;
61188;SDS011;47054;39.716;2.904;2022-12-29T05:16:57;4.18;;;2.42;;
61188;SDS011;47054;39.716;2.904;2022-12-29T05:19:43;4.20;;;2.30;;
61188;SDS011;47054;39.716;2.904;2022-12-29T05:22:28;3.80;;;2.28;;
61188;SDS011;47054;39.716;2.904;2022-12-29T05:25:14;3.45;;;1.95;;
61188;SDS011;47054;39.716;2.904;2022-12-29T05:28:12;5.65;;;2.30;;
61188;SDS011;47054;39.716;2.904;2022-12-29T05:31:06;4.03;;;2.05;;
61188;SDS011;47054;39.716;2.904;2022-12-29T05:33:50;3.78;;;2.22;;
61188;SDS011;47054;39.716;2.904;2022-12-29T05:36:35;2.67;;;1.70;;
61188;SDS011;47054;39.716;2.904;2022-12-29T05:39:20;3.92;;;2.10;;
61188;SDS011;47054;39.716;2.904;2022-12-29T05:42:12;4.55;;;2.13;;
61188;SDS011;47054;39.716;2.904;2022-12-29T05:45:17;3.65;;;1.90;;
61188;SDS011;47054;39.716;2.904;2022-12-29T05:48:15;3.47;;;2.03;;
61188;SDS011;47054;39.716;2.904;2022-12-29T05:51:22;3.83;;;2.00;;
61188;SDS011;47054;39.716;2.904;2022-12-29T05:54:09;3.65;;;2.20;;
61188;SDS011;47054;39.716;2.904;2022-12-29T05:56:55;3.88;;;2.00;;
61188;SDS011;47054;39.716;2.904;2022-12-29T05:59:40;5.50;;;2.10;;
61188;SDS011;47054;39.716;2.904;2022-12-29T06:02:25;3.42;;;2.10;;
61188;SDS011;47054;39.716;2.904;2022-12-29T06:05:10;4.28;;;2.20;;
61188;SDS011;47054;39.716;2.904;2022-12-29T06:07:59;3.58;;;2.03;;
61188;SDS011;47054;39.716;2.904;2022-12-29T06:10:45;3.80;;;2.03;;
61188;SDS011;47054;39.716;2.904;2022-12-29T06:13:31;4.82;;;2.30;;
61188;SDS011;47054;39.716;2.904;2022-12-29T06:16:16;4.65;;;2.03;;
61188;SDS011;47054;39.716;2.904;2022-12-29T06:19:01;4.22;;;1.95;;
61188;SDS011;47054;39.716;2.904;2022-12-29T06:21:46;4.35;;;2.22;;
61188;SDS011;47054;39.716;2.904;2022-12-29T06:24:31;3.80;;;2.10;;
61188;SDS011;47054;39.716;2.904;2022-12-29T06:27:15;3.83;;;2.00;;
61188;SDS011;47054;39.716;2.904;2022-12-29T06:30:00;3.65;;;1.95;;
61188;SDS011;47054;39.716;2.904;2022-12-29T06:32:46;4.10;;;2.10;;
61188;SDS011;47054;39.716;2.904;2022-12-29T06:35:31;3.55;;;1.90;;
61188;SDS011;47054;39.716;2.904;2022-12-29T06:38:17;4.20;;;2.20;;
61188;SDS011;47054;39.716;2.904;2022-12-29T06:41:01;3.60;;;1.90;;
61188;SDS011;47054;39.716;2.904;2022-12-29T06:43:46;4.45;;;2.30;;
61188;SDS011;47054;39.716;2.904;2022-12-29T06:46:42;3.20;;;1.98;;
61188;SDS011;47054;39.716;2.904;2022-12-29T06:49:27;4.70;;;1.95;;
61188;SDS011;47054;39.716;2.904;2022-12-29T06:52:12;4.35;;;1.80;;
61188;SDS011;47054;39.716;2.904;2022-12-29T06:54:56;4.05;;;1.92;;
61188;SDS011;47054;39.716;2.904;2022-12-29T06:57:40;3.20;;;1.80;;
61188;SDS011;47054;39.716;2.904;2022-12-29T07:00:25;3.38;;;2.00;;
61188;SDS011;47054;39.716;2.904;2022-12-29T07:03:09;3.90;;;1.55;;
61188;SDS011;47054;39.716;2.904;2022-12-29T07:05:54;3.53;;;2.00;;
61188;SDS011;47054;39.716;2.904;2022-12-29T07:08:39;4.05;;;1.90;;
61188;SDS011;47054;39.716;2.904;2022-12-29T07:11:24;3.90;;;2.00;;
61188;SDS011;47054;39.716;2.904;2022-12-29T07:14:09;4.85;;;2.25;;
61188;SDS011;47054;39.716;2.904;2022-12-29T07:16:55;3.42;;;2.00;;
61188;SDS011;47054;39.716;2.904;2022-12-29T07:19:40;4.55;;;2.20;;
61188;SDS011;47054;39.716;2.904;2022-12-29T07:22:26;4.20;;;2.13;;
61188;SDS011;47054;39.716;2.904;2022-12-29T07:25:10;4.28;;;2.40;;
61188;SDS011;47054;39.716;2.904;2022-12-29T07:27:55;4.05;;;2.13;;
61188;SDS011;47054;39.716;2.904;2022-12-29T07:30:39;4.40;;;2.50;;
61188;SDS011;47054;39.716;2.904;2022-12-29T07:33:25;4.47;;;2.47;;
61188;SDS011;47054;39.716;2.904;2022-12-29T07:36:12;4.07;;;2.25;;
61188;SDS011;47054;39.716;2.904;2022-12-29T07:38:58;3.60;;;2.28;;
61188;SDS011;47054;39.716;2.904;2022-12-29T07:41:43;4.03;;;2.08;;
61188;SDS011;47054;39.716;2.904;2022-12-29T07:44:34;3.47;;;2.00;;
61188;SDS011;47054;39.716;2.904;2022-12-29T07:47:40;4.35;;;2.03;;
61188;SDS011;47054;39.716;2.904;2022-12-29T07:50:25;3.95;;;2.20;;
61188;SDS011;47054;39.716;2.904;2022-12-29T07:53:10;6.68;;;2.47;;
61188;SDS011;47054;39.716;2.904;2022-12-29T07:55:55;3.92;;;2.15;;
61188;SDS011;47054;39.716;2.904;2022-12-29T07:58:41;4.07;;;2.15;;
61188;SDS011;47054;39.716;2.904;2022-12-29T08:01:25;4.13;;;2.35;;
61188;SDS011;47054;39.716;2.904;2022-12-29T08:04:10;4.40;;;2.17;;
61188;SDS011;47054;39.716;2.904;2022-12-29T08:06:54;4.97;;;2.53;;
61188;SDS011;47054;39.716;2.904;2022-12-29T08:09:39;4.82;;;2.38;;
61188;SDS011;47054;39.716;2.904;2022-12-29T08:12:23;3.55;;;2.13;;
61188;SDS011;47054;39.716;2.904;2022-12-29T08:15:08;4.65;;;2.42;;
61188;SDS011;47054;39.716;2.904;2022-12-29T08:17:54;4.20;;;2.53;;
61188;SDS011;47054;39.716;2.904;2022-12-29T08:20:39;4.10;;;2.10;;
61188;SDS011;47054;39.716;2.904;2022-12-29T08:23:24;4.47;;;2.50;;
61188;SDS011;47054;39.716;2.904;2022-12-29T08:26:10;4.35;;;2.40;;
61188;SDS011;47054;39.716;2.904;2022-12-29T08:28:55;4.05;;;2.15;;
61188;SDS011;47054;39.716;2.904;2022-12-29T08:31:40;4.63;;;2.20;;
61188;SDS011;47054;39.716;2.904;2022-12-29T08:34:25;5.72;;;2.10;;
61188;SDS011;47054;39.716;2.904;2022-12-29T08:37:11;3.95;;;1.90;;
61188;SDS011;47054;39.716;2.904;2022-12-29T08:39:56;3.15;;;2.08;;
61188;SDS011;47054;39.716;2.904;2022-12-29T08:42:42;3.60;;;2.08;;
61188;SDS011;47054;39.716;2.904;2022-12-29T08:45:27;3.63;;;2.20;;
61188;SDS011;47054;39.716;2.904;2022-12-29T08:48:11;3.85;;;2.20;;
61188;SDS011;47054;39.716;2.904;2022-12-29T08:50:56;3.47;;;2.20;;
61188;SDS011;47054;39.716;2.904;2022-12-29T08:53:41;5.00;;;2.22;;
61188;SDS011;47054;39.716;2.904;2022-12-29T08:56:25;4.00;;;2.08;;
61188;SDS011;47054;39.716;2.904;2022-12-29T08:59:14;4.85;;;2.20;;
61188;SDS011;47054;39.716;2.904;2022-12-29T09:01:59;3.67;;;2.00;;
61188;SDS011;47054;39.716;2.904;2022-12-29T09:04:46;5.13;;;2.28;;
61188;SDS011;47054;39.716;2.904;2022-12-29T09:07:30;3.47;;;2.13;;
61188;SDS011;47054;39.716;2.904;2022-12-29T09:10:14;4.60;;;2.30;;
61188;SDS011;47054;39.716;2.904;2022-12-29T09:12:59;4.57;;;2.30;;
61188;SDS011;47054;39.716;2.904;2022-12-29T09:15:44;4.78;;;2.40;;
61188;SDS011;47054;39.716;2.904;2022-12-29T09:18:29;4.30;;;2.78;;
61188;SDS011;47054;39.716;2.904;2022-12-29T09:21:14;3.92;;;2.13;;
61188;SDS011;47054;39.716;2.904;2022-12-29T09:23:59;3.35;;;2.17;;
61188;SDS011;47054;39.716;2.904;2022-12-29T09:26:43;3.95;;;2.00;;
61188;SDS011;47054;39.716;2.904;2022-12-29T09:29:28;4.35;;;2.10;;
61188;SDS011;47054;39.716;2.904;2022-12-29T09:32:12;3.63;;;2.30;;
61188;SDS011;47054;39.716;2.904;2022-12-29T09:34:57;6.72;;;2.20;;
61188;SDS011;47054;39.716;2.904;2022-12-29T09:37:42;3.97;;;2.28;;
61188;SDS011;47054;39.716;2.904;2022-12-29T09:40:28;4.18;;;2.15;;
61188;SDS011;47054;39.716;2.904;2022-12-29T09:46:29;4.15;;;2.22;;
61188;SDS011;47054;39.716;2.904;2022-12-29T09:52:15;5.07;;;2.13;;
61188;SDS011;47054;39.716;2.904;2022-12-29T09:55:21;3.63;;;2.00;;
61188;SDS011;47054;39.716;2.904;2022-12-29T09:58:19;4.03;;;2.15;;
61188;SDS011;47054;39.716;2.904;2022-12-29T10:04:32;3.15;;;2.15;;
61188;SDS011;47054;39.716;2.904;2022-12-29T10:07:20;3.45;;;2.00;;
61188;SDS011;47054;39.716;2.904;2022-12-29T10:10:20;4.47;;;2.03;;
61188;SDS011;47054;39.716;2.904;2022-12-29T10:23:04;5.10;;;2.10;;
61188;SDS011;47054;39.716;2.904;2022-12-29T10:25:56;4.18;;;2.05;;
61188;SDS011;47054;39.716;2.904;2022-12-29T10:28:50;3.63;;;2.17;;
61188;SDS011;47054;39.716;2.904;2022-12-29T10:37:34;4.00;;;2.25;;
61188;SDS011;47054;39.716;2.904;2022-12-29T10:40:24;4.75;;;2.10;;
61188;SDS011;47054;39.716;2.904;2022-12-29T10:43:24;3.53;;;2.05;;
61188;SDS011;47054;39.716;2.904;2022-12-29T10:46:12;3.42;;;2.08;;
61188;SDS011;47054;39.716;2.904;2022-12-29T10:49:01;3.90;;;2.13;;
61188;SDS011;47054;39.716;2.904;2022-12-29T10:51:47;3.42;;;1.85;;
61188;SDS011;47054;39.716;2.904;2022-12-29T10:54:40;3.70;;;1.92;;
61188;SDS011;47054;39.716;2.904;2022-12-29T10:57:39;4.03;;;1.90;;
61188;SDS011;47054;39.716;2.904;2022-12-29T11:00:28;3.83;;;2.05;;
61188;SDS011;47054;39.716;2.904;2022-12-29T11:03:25;4.22;;;2.13;;
61188;SDS011;47054;39.716;2.904;2022-12-29T11:06:42;4.03;;;2.10;;
61188;SDS011;47054;39.716;2.904;2022-12-29T11:09:29;4.55;;;2.53;;
61188;SDS011;47054;39.716;2.904;2022-12-29T11:12:21;5.50;;;2.72;;
61188;SDS011;47054;39.716;2.904;2022-12-29T11:17:57;6.95;;;2.45;;
61188;SDS011;47054;39.716;2.904;2022-12-29T11:20:43;6.18;;;2.75;;
61188;SDS011;47054;39.716;2.904;2022-12-29T11:23:29;6.20;;;2.80;;
61188;SDS011;47054;39.716;2.904;2022-12-29T11:26:23;4.97;;;2.65;;
61188;SDS011;47054;39.716;2.904;2022-12-29T11:31:53;5.47;;;2.83;;
61188;SDS011;47054;39.716;2.904;2022-12-29T11:34:43;6.65;;;2.75;;
61188;SDS011;47054;39.716;2.904;2022-12-29T11:37:36;6.85;;;2.72;;
61188;SDS011;47054;39.716;2.904;2022-12-29T11:40:23;6.60;;;2.90;;
61188;SDS011;47054;39.716;2.904;2022-12-29T11:43:22;8.15;;;3.10;;
61188;SDS011;47054;39.716;2.904;2022-12-29T11:46:16;5.30;;;2.75;;
61188;SDS011;47054;39.716;2.904;2022-12-29T11:49:03;5.30;;;2.75;;
61188;SDS011;47054;39.716;2.904;2022-12-29T11:51:50;9.55;;;3.22;;
61188;SDS011;47054;39.716;2.904;2022-12-29T11:54:36;7.95;;;3.00;;
61188;SDS011;47054;39.716;2.904;2022-12-29T11:57:22;8.65;;;3.08;;
61188;SDS011;47054;39.716;2.904;2022-12-29T12:00:16;7.80;;;2.72;;
61188;SDS011;47054;39.716;2.904;2022-12-29T12:03:15;6.77;;;3.00;;
61188;SDS011;47054;39.716;2.904;2022-12-29T12:06:04;6.57;;;2.72;;
61188;SDS011;47054;39.716;2.904;2022-12-29T12:08:53;7.68;;;2.70;;
61188;SDS011;47054;39.716;2.904;2022-12-29T12:11:40;5.55;;;2.90;;
61188;SDS011;47054;39.716;2.904;2022-12-29T12:14:41;8.27;;;3.08;;
61188;SDS011;47054;39.716;2.904;2022-12-29T12:17:54;6.88;;;2.90;;
61188;SDS011;47054;39.716;2.904;2022-12-29T12:20:54;5.33;;;2.73;;
61188;SDS011;47054;39.716;2.904;2022-12-29T12:23:53;5.78;;;2.90;;
61188;SDS011;47054;39.716;2.904;2022-12-29T12:27:02;5.70;;;2.58;;
61188;SDS011;47054;39.716;2.904;2022-12-29T12:30:04;8.23;;;2.92;;
61188;SDS011;47054;39.716;2.904;2022-12-29T12:33:06;8.20;;;3.03;;
61188;SDS011;47054;39.716;2.904;2022-12-29T12:39:11;6.57;;;3.28;;
61188;SDS011;47054;39.716;2.904;2022-12-29T12:42:47;7.00;;;2.58;;
61188;SDS011;47054;39.716;2.904;2022-12-29T12:48:44;9.43;;;3.58;;
61188;SDS011;47054;39.716;2.904;2022-12-29T12:51:53;6.07;;;2.67;;
61188;SDS011;47054;39.716;2.904;2022-12-29T12:55:06;9.05;;;3.22;;
61188;SDS011;47054;39.716;2.904;2022-12-29T13:35:31;34.03;;;10.57;;
61188;SDS011;47054;39.716;2.904;2022-12-29T13:38:18;34.35;;;11.40;;
61188;SDS011;47054;39.716;2.904;2022-12-29T13:41:12;34.33;;;11.95;;
61188;SDS011;47054;39.716;2.904;2022-12-29T13:44:13;36.10;;;12.13;;
61188;SDS011;47054;39.716;2.904;2022-12-29T13:47:05;42.42;;;13.40;;
61188;SDS011;47054;39.716;2.904;2022-12-29T13:50:12;41.45;;;13.07;;
61188;SDS011;47054;39.716;2.904;2022-12-29T13:55:51;43.88;;;14.07;;
61188;SDS011;47054;39.716;2.904;2022-12-29T14:01:35;39.28;;;12.95;;
61188;SDS011;47054;39.716;2.904;2022-12-29T14:04:27;41.87;;;13.83;;
61188;SDS011;47054;39.716;2.904;2022-12-29T14:07:14;42.97;;;12.38;;
61188;SDS011;47054;39.716;2.904;2022-12-29T14:10:00;43.80;;;13.57;;
61188;SDS011;47054;39.716;2.904;2022-12-29T14:12:45;42.15;;;13.30;;
61188;SDS011;47054;39.716;2.904;2022-12-29T14:15:30;38.38;;;13.75;;
61188;SDS011;47054;39.716;2.904;2022-12-29T14:18:19;44.08;;;14.40;;
61188;SDS011;47054;39.716;2.904;2022-12-29T14:33:34;43.58;;;12.52;;
61188;SDS011;47054;39.716;2.904;2022-12-29T14:36:25;36.67;;;12.80;;
61188;SDS011;47054;39.716;2.904;2022-12-29T14:39:27;36.72;;;11.95;;
61188;SDS011;47054;39.716;2.904;2022-12-29T14:42:18;34.35;;;10.52;;
61188;SDS011;47054;39.716;2.904;2022-12-29T14:45:07;37.03;;;12.00;;
61188;SDS011;47054;39.716;2.904;2022-12-29T14:47:58;32.13;;;10.80;;
61188;SDS011;47054;39.716;2.904;2022-12-29T14:50:44;28.33;;;9.50;;
61188;SDS011;47054;39.716;2.904;2022-12-29T14:53:43;31.35;;;9.43;;
61188;SDS011;47054;39.716;2.904;2022-12-29T14:56:30;33.88;;;10.38;;
61188;SDS011;47054;39.716;2.904;2022-12-29T14:59:16;27.25;;;8.73;;
61188;SDS011;47054;39.716;2.904;2022-12-29T15:02:03;24.63;;;8.10;;
61188;SDS011;47054;39.716;2.904;2022-12-29T15:04:58;23.20;;;8.57;;
61188;SDS011;47054;39.716;2.904;2022-12-29T15:07:44;25.95;;;7.70;;
61188;SDS011;47054;39.716;2.904;2022-12-29T15:10:33;24.75;;;7.78;;
61188;SDS011;47054;39.716;2.904;2022-12-29T15:13:34;23.35;;;7.07;;
61188;SDS011;47054;39.716;2.904;2022-12-29T15:19:24;21.50;;;7.25;;
61188;SDS011;47054;39.716;2.904;2022-12-29T15:22:10;21.58;;;6.63;;
61188;SDS011;47054;39.716;2.904;2022-12-29T15:24:56;18.40;;;6.53;;
61188;SDS011;47054;39.716;2.904;2022-12-29T15:27:43;15.93;;;5.80;;
61188;SDS011;47054;39.716;2.904;2022-12-29T15:30:49;18.73;;;5.82;;
61188;SDS011;47054;39.716;2.904;2022-12-29T15:33:38;14.75;;;5.10;;
61188;SDS011;47054;39.716;2.904;2022-12-29T15:36:26;21.00;;;6.00;;
61188;SDS011;47054;39.716;2.904;2022-12-29T15:39:19;17.02;;;5.75;;
61188;SDS011;47054;39.716;2.904;2022-12-29T15:45:03;17.65;;;5.32;;
61188;SDS011;47054;39.716;2.904;2022-12-29T15:47:54;15.93;;;4.93;;
61188;SDS011;47054;39.716;2.904;2022-12-29T15:50:40;14.70;;;5.65;;
61188;SDS011;47054;39.716;2.904;2022-12-29T15:53:28;13.77;;;5.25;;
61188;SDS011;47054;39.716;2.904;2022-12-29T15:56:15;14.48;;;5.10;;
61188;SDS011;47054;39.716;2.904;2022-12-29T15:59:00;15.05;;;5.03;;
61188;SDS011;47054;39.716;2.904;2022-12-29T16:01:45;16.23;;;5.15;;
61188;SDS011;47054;39.716;2.904;2022-12-29T16:04:30;15.93;;;4.97;;
61188;SDS011;47054;39.716;2.904;2022-12-29T16:07:30;13.02;;;4.43;;
61188;SDS011;47054;39.716;2.904;2022-12-29T16:10:36;11.35;;;4.07;;
61188;SDS011;47054;39.716;2.904;2022-12-29T16:13:26;11.90;;;4.68;;
61188;SDS011;47054;39.716;2.904;2022-12-29T16:16:19;9.25;;;4.32;;
61188;SDS011;47054;39.716;2.904;2022-12-29T16:19:13;12.05;;;4.45;;
61188;SDS011;47054;39.716;2.904;2022-12-29T16:22:08;13.73;;;4.50;;
61188;SDS011;47054;39.716;2.904;2022-12-29T16:24:57;11.45;;;4.00;;
61188;SDS011;47054;39.716;2.904;2022-12-29T16:27:44;12.98;;;4.47;;
61188;SDS011;47054;39.716;2.904;2022-12-29T16:30:30;8.88;;;3.70;;
61188;SDS011;47054;39.716;2.904;2022-12-29T16:36:40;13.85;;;4.35;;
61188;SDS011;47054;39.716;2.904;2022-12-29T16:39:44;11.13;;;3.42;;
61188;SDS011;47054;39.716;2.904;2022-12-29T16:48:15;9.80;;;3.58;;
61188;SDS011;47054;39.716;2.904;2022-12-29T16:51:04;9.15;;;3.50;;
61188;SDS011;47054;39.716;2.904;2022-12-29T16:53:55;10.05;;;3.95;;
61188;SDS011;47054;39.716;2.904;2022-12-29T16:56:42;7.75;;;3.22;;
61188;SDS011;47054;39.716;2.904;2022-12-29T16:59:36;5.05;;;2.67;;
61188;SDS011;47054;39.716;2.904;2022-12-29T17:02:23;9.48;;;3.25;;
61188;SDS011;47054;39.716;2.904;2022-12-29T17:05:13;8.00;;;3.28;;
61188;SDS011;47054;39.716;2.904;2022-12-29T17:07:59;9.48;;;3.75;;
61188;SDS011;47054;39.716;2.904;2022-12-29T17:10:44;7.60;;;3.38;;
61188;SDS011;47054;39.716;2.904;2022-12-29T17:13:49;9.20;;;3.20;;
61188;SDS011;47054;39.716;2.904;2022-12-29T17:16:33;7.35;;;2.88;;
61188;SDS011;47054;39.716;2.904;2022-12-29T17:19:20;7.63;;;2.97;;
61188;SDS011;47054;39.716;2.904;2022-12-29T17:22:27;6.50;;;2.70;;
61188;SDS011;47054;39.716;2.904;2022-12-29T17:25:13;10.57;;;3.13;;
61188;SDS011;47054;39.716;2.904;2022-12-29T17:28:12;8.77;;;2.90;;
61188;SDS011;47054;39.716;2.904;2022-12-29T17:33:50;9.32;;;2.63;;
61188;SDS011;47054;39.716;2.904;2022-12-29T17:36:36;6.57;;;2.92;;
61188;SDS011;47054;39.716;2.904;2022-12-29T17:39:21;6.72;;;2.25;;
61188;SDS011;47054;39.716;2.904;2022-12-29T17:42:06;6.45;;;2.80;;
61188;SDS011;47054;39.716;2.904;2022-12-29T17:44:54;5.90;;;2.67;;
61188;SDS011;47054;39.716;2.904;2022-12-29T17:47:39;8.25;;;2.63;;
61188;SDS011;47054;39.716;2.904;2022-12-29T17:50:24;6.32;;;2.45;;
61188;SDS011;47054;39.716;2.904;2022-12-29T17:53:11;5.88;;;2.75;;
61188;SDS011;47054;39.716;2.904;2022-12-29T17:55:57;5.53;;;2.30;;
61188;SDS011;47054;39.716;2.904;2022-12-29T17:58:42;4.65;;;2.35;;
61188;SDS011;47054;39.716;2.904;2022-12-29T18:01:29;5.63;;;2.67;;
61188;SDS011;47054;39.716;2.904;2022-12-29T18:04:18;6.78;;;2.60;;
61188;SDS011;47054;39.716;2.904;2022-12-29T18:07:08;6.93;;;2.30;;
61188;SDS011;47054;39.716;2.904;2022-12-29T18:09:54;6.22;;;2.50;;
61188;SDS011;47054;39.716;2.904;2022-12-29T18:12:40;6.05;;;2.30;;
61188;SDS011;47054;39.716;2.904;2022-12-29T18:15:31;6.50;;;2.67;;
61188;SDS011;47054;39.716;2.904;2022-12-29T18:18:20;8.35;;;2.70;;
61188;SDS011;47054;39.716;2.904;2022-12-29T18:21:20;5.68;;;2.30;;
61188;SDS011;47054;39.716;2.904;2022-12-29T18:24:10;5.82;;;2.20;;
61188;SDS011;47054;39.716;2.904;2022-12-29T18:26:59;5.13;;;2.33;;
61188;SDS011;47054;39.716;2.904;2022-12-29T18:29:45;5.78;;;2.15;;
61188;SDS011;47054;39.716;2.904;2022-12-29T18:32:29;6.13;;;2.40;;
61188;SDS011;47054;39.716;2.904;2022-12-29T18:36:00;7.38;;;2.58;;
61188;SDS011;47054;39.716;2.904;2022-12-29T18:38:23;5.50;;;2.17;;
61188;SDS011;47054;39.716;2.904;2022-12-29T18:41:12;5.22;;;2.30;;
61188;SDS011;47054;39.716;2.904;2022-12-29T18:44:02;5.65;;;2.38;;
61188;SDS011;47054;39.716;2.904;2022-12-29T18:46:47;5.95;;;2.38;;
61188;SDS011;47054;39.716;2.904;2022-12-29T18:49:31;5.18;;;2.35;;
61188;SDS011;47054;39.716;2.904;2022-12-29T18:52:17;4.95;;;2.35;;
61188;SDS011;47054;39.716;2.904;2022-12-29T18:55:01;5.70;;;2.40;;
61188;SDS011;47054;39.716;2.904;2022-12-29T18:57:45;6.82;;;2.22;;
61188;SDS011;47054;39.716;2.904;2022-12-29T19:00:30;5.53;;;2.20;;
61188;SDS011;47054;39.716;2.904;2022-12-29T19:03:16;3.67;;;2.10;;
61188;SDS011;47054;39.716;2.904;2022-12-29T19:06:01;4.03;;;2.10;;
61188;SDS011;47054;39.716;2.904;2022-12-29T19:08:45;3.83;;;2.05;;
61188;SDS011;47054;39.716;2.904;2022-12-29T19:11:30;4.82;;;2.50;;
61188;SDS011;47054;39.716;2.904;2022-12-29T19:14:15;4.22;;;2.33;;
61188;SDS011;47054;39.716;2.904;2022-12-29T19:17:00;5.13;;;2.47;;
61188;SDS011;47054;39.716;2.904;2022-12-29T19:19:45;4.43;;;2.28;;
61188;SDS011;47054;39.716;2.904;2022-12-29T19:22:30;4.47;;;2.03;;
61188;SDS011;47054;39.716;2.904;2022-12-29T19:25:14;4.53;;;1.95;;